createdAt,value
2022-10-01T00:01:16.363Z,75.88
2022-10-01T00:03:43.808Z,75.73
2022-10-01T00:06:19.036Z,75.84
2022-10-01T00:08:49.259Z,75.82
2022-10-01T00:11:19.064Z,75.85
2022-10-01T00:13:46.443Z,75.77
2022-10-01T00:16:16.485Z,76.05
2022-10-01T00:18:45.611Z,76.04
2022-10-01T00:21:15.358Z,75.86
2022-10-01T00:23:42.434Z,75.77
2022-10-01T00:26:21.027Z,75.64
2022-10-01T00:28:52.640Z,75.79
2022-10-01T00:31:19.384Z,75.76
2022-10-01T00:33:48.257Z,75.75
2022-10-01T00:36:14.861Z,75.74
2022-10-01T00:38:41.569Z,75.92
2022-10-01T00:41:09.434Z,75.81
2022-10-01T00:43:40.089Z,75.76
2022-10-01T00:46:18.081Z,75.76
2022-10-01T00:49:00.270Z,75.68
2022-10-01T00:51:30.569Z,75.53
2022-10-01T00:54:05.652Z,75.88
2022-10-01T00:56:32.884Z,75.77
2022-10-01T00:59:00.148Z,75.86
2022-10-01T01:01:26.757Z,75.77
2022-10-01T01:03:53.421Z,75.92
2022-10-01T01:06:20.101Z,75.84
2022-10-01T01:08:53.450Z,75.74
2022-10-01T01:11:35.097Z,75.75
2022-10-01T01:14:15.026Z,75.99
2022-10-01T01:17:11.586Z,75.95
2022-10-01T01:20:09.637Z,76.30
2022-10-01T01:22:42.212Z,76.25
2022-10-01T01:25:18.120Z,76.34
2022-10-01T01:28:06.693Z,76.50
2022-10-01T01:30:34.431Z,76.56
2022-10-01T01:33:05.959Z,76.95
2022-10-01T01:35:39.505Z,76.92
2022-10-01T01:38:14.177Z,76.99
2022-10-01T01:40:44.555Z,76.98
2022-10-01T01:43:19.484Z,76.93
2022-10-01T01:45:49.844Z,76.78
2022-10-01T01:48:16.519Z,76.83
2022-10-01T01:51:18.068Z,76.95
2022-10-01T01:53:44.788Z,76.83
2022-10-01T01:56:11.621Z,76.89
2022-10-01T01:58:39.210Z,76.75
2022-10-01T02:01:05.775Z,76.70
2022-10-01T02:03:34.401Z,76.86
2022-10-01T02:06:30.295Z,76.83
2022-10-01T02:09:05.993Z,77.10
2022-10-01T02:11:38.641Z,76.88
2022-10-01T02:14:28.586Z,77.06
2022-10-01T02:17:03.654Z,76.81
2022-10-01T02:20:12.705Z,76.84
2022-10-01T02:22:43.733Z,76.87
2022-10-01T02:25:13.083Z,76.91
2022-10-01T02:27:56.185Z,77.27
2022-10-01T02:30:22.843Z,76.98
2022-10-01T02:32:50.662Z,76.99
2022-10-01T02:35:19.365Z,77.21
2022-10-01T02:37:51.499Z,77.17
2022-10-01T02:40:22.344Z,77.09
2022-10-01T02:42:55.063Z,77.13
2022-10-01T02:45:27.504Z,77.03
2022-10-01T02:47:59.891Z,77.23
2022-10-01T02:50:34.744Z,77.42
2022-10-01T02:53:08.810Z,77.29
2022-10-01T02:55:38.955Z,77.31
2022-10-01T02:58:07.159Z,77.32
2022-10-01T03:00:33.773Z,77.28
2022-10-01T03:03:00.435Z,77.27
2022-10-01T03:05:27.072Z,77.24
2022-10-01T03:07:56.017Z,77.14
2022-10-01T03:10:22.575Z,77.19
2022-10-01T03:12:50.940Z,77.19
2022-10-01T03:15:19.331Z,77.23
2022-10-01T03:17:46.842Z,77.24
2022-10-01T03:20:13.452Z,77.05
2022-10-01T03:22:40.029Z,77.14
2022-10-01T03:25:06.901Z,77.10
2022-10-01T03:27:33.623Z,77.03
2022-10-01T03:30:00.204Z,77.13
2022-10-01T03:32:26.757Z,77.04
2022-10-01T03:34:53.316Z,76.97
2022-10-01T03:37:19.839Z,77.18
2022-10-01T03:39:47.684Z,77.05
2022-10-01T03:42:15.179Z,76.95
2022-10-01T03:44:41.719Z,76.92
2022-10-01T03:47:10.027Z,77.01
2022-10-01T03:49:37.225Z,77.12
2022-10-01T03:52:06.612Z,76.78
2022-10-01T03:54:33.364Z,76.99
2022-10-01T03:56:59.901Z,76.84
2022-10-01T03:59:27.458Z,77.06
2022-10-01T04:01:54.286Z,76.92
2022-10-01T04:04:20.947Z,76.86
2022-10-01T04:06:47.584Z,76.74
2022-10-01T04:09:14.133Z,76.67
2022-10-01T04:11:40.665Z,76.72
2022-10-01T04:14:07.254Z,76.75
2022-10-01T04:16:37.065Z,76.71
2022-10-01T04:19:04.459Z,76.75
2022-10-01T04:21:31.216Z,76.60
2022-10-01T04:23:58.167Z,76.48
2022-10-01T04:26:25.182Z,76.54
2022-10-01T04:28:51.755Z,76.38
2022-10-01T04:31:27.228Z,76.32
2022-10-01T04:33:56.093Z,76.22
2022-10-01T04:36:24.338Z,76.16
2022-10-01T04:39:00.938Z,76.31
2022-10-01T04:41:30.646Z,76.10
2022-10-01T04:43:59.694Z,76.12
2022-10-01T04:46:26.448Z,75.95
2022-10-01T04:48:53.082Z,75.79
2022-10-01T04:51:19.652Z,75.95
2022-10-01T04:53:46.257Z,76.05
2022-10-01T04:56:12.763Z,75.71
2022-10-01T04:58:39.362Z,75.63
2022-10-01T05:01:06.073Z,75.74
2022-10-01T05:03:32.745Z,75.69
2022-10-01T05:05:59.311Z,75.67
2022-10-01T05:08:25.832Z,75.43
2022-10-01T05:10:53.084Z,75.37
2022-10-01T05:13:19.651Z,75.24
2022-10-01T05:15:49.103Z,75.50
2022-10-01T05:18:15.722Z,75.37
2022-10-01T05:20:42.289Z,75.33
2022-10-01T05:23:08.808Z,75.45
2022-10-01T05:25:35.412Z,75.28
2022-10-01T05:28:05.924Z,75.44
2022-10-01T05:30:33.737Z,75.32
2022-10-01T05:33:02.173Z,75.25
2022-10-01T05:35:29.691Z,75.19
2022-10-01T05:37:58.884Z,75.01
2022-10-01T05:40:28.462Z,74.98
2022-10-01T05:42:59.833Z,74.77
2022-10-01T05:45:30.931Z,74.66
2022-10-01T05:47:59.697Z,74.67
2022-10-01T05:50:27.081Z,74.64
2022-10-01T05:52:54.667Z,74.65
2022-10-01T05:55:22.363Z,74.64
2022-10-01T05:57:59.358Z,74.61
2022-10-01T06:00:29.479Z,74.62
2022-10-01T06:02:59.925Z,74.61
2022-10-01T06:05:27.625Z,74.60
2022-10-01T06:07:54.277Z,74.67
2022-10-01T06:10:21.742Z,74.51
2022-10-01T06:12:48.643Z,74.42
2022-10-01T06:15:17.246Z,74.51
2022-10-01T06:17:46.848Z,74.51
2022-10-01T06:20:15.767Z,74.26
2022-10-01T06:22:43.418Z,74.50
2022-10-01T06:25:12.153Z,74.23
2022-10-01T06:27:39.210Z,74.20
2022-10-01T06:30:07.042Z,74.12
2022-10-01T06:32:35.146Z,74.21
2022-10-01T06:35:02.848Z,74.24
2022-10-01T06:37:29.790Z,73.94
2022-10-01T06:39:56.493Z,74.06
2022-10-01T06:42:23.221Z,74.02
2022-10-01T06:44:49.788Z,74.06
2022-10-01T06:47:16.313Z,73.92
2022-10-01T06:49:47.344Z,73.61
2022-10-01T06:52:32.888Z,73.28
2022-10-01T06:55:01.245Z,73.28
2022-10-01T06:57:28.557Z,73.19
2022-10-01T06:59:55.743Z,72.98
2022-10-01T07:02:28.195Z,72.58
2022-10-01T07:05:01.600Z,72.36
2022-10-01T07:07:32.724Z,72.22
2022-10-01T07:09:59.320Z,72.27
2022-10-01T07:12:26.714Z,71.62
2022-10-01T07:14:54.547Z,71.51
2022-10-01T07:17:22.058Z,71.47
2022-10-01T07:19:48.666Z,71.33
2022-10-01T07:22:15.233Z,71.12
2022-10-01T07:24:41.930Z,71.44
2022-10-01T07:27:08.910Z,71.20
2022-10-01T07:29:35.501Z,70.99
2022-10-01T07:32:04.071Z,71.10
2022-10-01T07:34:33.547Z,70.84
2022-10-01T07:37:02.221Z,70.56
2022-10-01T07:39:28.910Z,70.18
2022-10-01T07:41:56.020Z,70.30
2022-10-01T07:44:22.610Z,70.12
2022-10-01T07:46:49.233Z,70.19
2022-10-01T07:49:16.858Z,69.60
2022-10-01T07:51:43.940Z,69.74
2022-10-01T07:54:11.028Z,69.72
2022-10-01T07:56:38.172Z,68.98
2022-10-01T07:59:04.941Z,69.26
2022-10-01T08:01:32.552Z,68.79
2022-10-01T08:04:02.489Z,68.82
2022-10-01T08:06:29.659Z,68.19
2022-10-01T08:08:56.290Z,67.96
2022-10-01T08:11:24.726Z,67.87
2022-10-01T08:13:51.383Z,67.81
2022-10-01T08:16:18.281Z,67.77
2022-10-01T08:18:44.907Z,67.39
2022-10-01T08:21:11.563Z,67.12
2022-10-01T08:23:38.090Z,66.72
2022-10-01T08:26:08.048Z,67.10
2022-10-01T08:28:35.376Z,66.62
2022-10-01T08:31:09.945Z,66.17
2022-10-01T08:33:38.360Z,66.20
2022-10-01T08:36:09.597Z,65.95
2022-10-01T08:38:36.831Z,65.87
2022-10-01T08:41:23.391Z,65.84
2022-10-01T08:43:51.831Z,65.87
2022-10-01T08:46:21.801Z,65.87
2022-10-01T08:49:08.694Z,66.51
2022-10-01T08:51:50.419Z,66.33
2022-10-01T08:54:34.276Z,67.03
2022-10-01T08:57:04.753Z,66.73
2022-10-01T08:59:43.657Z,66.02
2022-10-01T09:02:28.492Z,66.48
2022-10-01T09:05:01.468Z,66.71
2022-10-01T09:07:59.602Z,67.09
2022-10-01T09:10:47.733Z,66.84
2022-10-01T09:13:32.608Z,66.57
2022-10-01T09:16:13.755Z,65.82
2022-10-01T09:19:20.226Z,67.79
2022-10-01T09:22:02.088Z,66.24
2022-10-01T09:24:54.991Z,66.30
2022-10-01T09:27:25.868Z,66.82
2022-10-01T09:30:00.778Z,66.78
2022-10-01T09:32:33.394Z,66.85
2022-10-01T09:35:07.711Z,65.90
2022-10-01T09:37:58.011Z,65.33
2022-10-01T09:40:36.003Z,64.97
2022-10-01T09:43:08.579Z,65.01
2022-10-01T09:45:37.085Z,65.21
2022-10-01T09:48:37.532Z,65.54
2022-10-01T09:51:17.854Z,65.29
2022-10-01T09:54:06.482Z,66.14
2022-10-01T09:56:56.502Z,65.71
2022-10-01T09:59:31.328Z,65.80
2022-10-01T10:02:02.081Z,64.72
2022-10-01T10:04:28.863Z,64.31
2022-10-01T10:07:05.150Z,65.20
2022-10-01T10:09:34.990Z,64.58
2022-10-01T10:12:04.581Z,64.33
2022-10-01T10:14:40.771Z,63.95
2022-10-01T10:17:13.381Z,63.70
2022-10-01T10:19:41.207Z,64.46
2022-10-01T10:22:19.430Z,64.57
2022-10-01T10:24:47.202Z,64.66
2022-10-01T10:27:34.004Z,64.49
2022-10-01T10:30:14.772Z,64.47
2022-10-01T10:32:42.876Z,64.03
2022-10-01T10:35:15.407Z,64.51
2022-10-01T10:37:48.506Z,64.35
2022-10-01T10:40:29.332Z,63.99
2022-10-01T10:42:59.060Z,64.31
2022-10-01T10:45:38.092Z,64.18
2022-10-01T10:48:12.670Z,64.31
2022-10-01T10:50:42.897Z,64.50
2022-10-01T10:53:22.294Z,64.24
2022-10-01T10:55:58.285Z,64.66
2022-10-01T10:58:27.020Z,64.65
2022-10-01T11:00:57.467Z,64.47
2022-10-01T11:03:27.916Z,64.21
2022-10-01T11:06:00.037Z,64.69
2022-10-01T11:08:30.824Z,64.89
2022-10-01T11:11:12.994Z,65.05
2022-10-01T11:14:28.817Z,64.53
2022-10-01T11:17:36.106Z,64.75
2022-10-01T11:20:22.727Z,64.79
2022-10-01T11:23:11.200Z,64.62
2022-10-01T11:25:48.054Z,64.28
2022-10-01T11:28:20.760Z,64.21
2022-10-01T11:31:08.435Z,64.89
2022-10-01T11:33:45.104Z,64.61
2022-10-01T11:36:33.481Z,64.52
2022-10-01T11:39:17.869Z,64.41
2022-10-01T11:41:52.813Z,64.17
2022-10-01T11:44:23.908Z,64.20
2022-10-01T11:46:59.277Z,64.10
2022-10-01T11:49:38.617Z,64.01
2022-10-01T11:52:32.644Z,64.69
2022-10-01T11:55:36.627Z,64.84
2022-10-01T11:58:40.736Z,64.55
2022-10-01T12:01:14.223Z,64.37
2022-10-01T12:04:02.181Z,64.02
2022-10-01T12:06:59.760Z,64.45
2022-10-01T12:09:59.669Z,64.45
2022-10-01T12:12:38.197Z,64.30
2022-10-01T12:15:09.906Z,65.87
2022-10-01T12:17:52.503Z,66.92
2022-10-01T12:20:48.487Z,70.27
2022-10-01T12:23:20.000Z,71.57
2022-10-01T12:26:17.335Z,73.56
2022-10-01T12:29:00.369Z,75.15
2022-10-01T12:31:27.408Z,77.50
2022-10-01T12:34:17.276Z,77.86
2022-10-01T12:36:49.917Z,78.88
2022-10-01T12:39:37.341Z,79.10
2022-10-01T12:42:34.221Z,79.45
2022-10-01T12:45:22.007Z,80.00
2022-10-01T12:48:16.476Z,80.70
2022-10-01T12:50:43.000Z,80.39
2022-10-01T12:53:17.862Z,80.68
2022-10-01T12:56:16.152Z,80.93
2022-10-01T12:58:54.482Z,80.81
2022-10-01T13:01:24.175Z,80.84
2022-10-01T13:04:20.085Z,81.11
2022-10-01T13:07:42.656Z,81.14
2022-10-01T13:10:34.961Z,81.18
2022-10-01T13:13:08.866Z,81.22
2022-10-01T13:15:42.220Z,81.10
2022-10-01T13:18:29.374Z,81.04
2022-10-01T13:21:21.769Z,80.69
2022-10-01T13:24:16.336Z,80.94
2022-10-01T13:26:55.971Z,80.88
2022-10-01T13:29:29.020Z,80.72
2022-10-01T13:31:58.869Z,80.82
2022-10-01T13:34:43.136Z,80.88
2022-10-01T13:37:16.774Z,80.96
2022-10-01T13:39:47.452Z,80.89
2022-10-01T13:42:22.969Z,81.14
2022-10-01T13:44:59.891Z,81.20
2022-10-01T13:47:27.237Z,81.42
2022-10-01T13:50:27.023Z,81.63
2022-10-01T13:53:18.073Z,82.06
2022-10-01T13:55:50.683Z,81.93
2022-10-01T13:58:35.499Z,82.40
2022-10-01T14:01:05.364Z,82.83
2022-10-01T14:03:53.861Z,82.85
2022-10-01T14:06:36.194Z,82.85
2022-10-01T14:09:19.503Z,82.52
2022-10-01T14:12:10.537Z,82.87
2022-10-01T14:14:59.141Z,82.60
2022-10-01T14:17:29.995Z,82.34
2022-10-01T14:19:58.117Z,82.50
2022-10-01T14:23:01.690Z,82.24
2022-10-01T14:25:53.923Z,82.47
2022-10-01T14:28:27.064Z,82.57
2022-10-01T14:31:22.106Z,82.64
2022-10-01T14:34:21.591Z,82.49
2022-10-01T14:36:53.611Z,82.91
2022-10-01T14:39:30.485Z,83.28
2022-10-01T14:41:58.225Z,83.23
2022-10-01T14:44:31.644Z,83.15
2022-10-01T14:47:00.009Z,83.22
2022-10-01T14:49:35.585Z,82.97
2022-10-01T14:52:16.728Z,82.74
2022-10-01T14:54:53.119Z,82.71
2022-10-01T14:57:41.899Z,82.78
2022-10-01T15:00:15.586Z,82.58
2022-10-01T15:02:49.334Z,82.34
2022-10-01T15:05:29.039Z,82.31
2022-10-01T15:07:55.854Z,82.17
2022-10-01T15:10:26.886Z,82.11
2022-10-01T15:12:55.114Z,82.03
2022-10-01T15:15:31.179Z,82.19
2022-10-01T15:17:58.139Z,82.31
2022-10-01T15:20:24.801Z,81.62
2022-10-01T15:23:01.032Z,81.75
2022-10-01T15:25:31.496Z,81.47
2022-10-01T15:27:58.103Z,81.40
2022-10-01T15:30:27.527Z,81.25
2022-10-01T15:32:54.724Z,81.15
2022-10-01T15:35:23.576Z,81.29
2022-10-01T15:37:51.550Z,81.62
2022-10-01T15:40:26.525Z,80.84
2022-10-01T15:43:08.757Z,81.22
2022-10-01T15:45:38.112Z,81.48
2022-10-01T15:48:04.785Z,81.47
2022-10-01T15:50:36.632Z,81.32
2022-10-01T15:53:10.290Z,81.18
2022-10-01T15:55:42.453Z,81.31
2022-10-01T15:58:22.827Z,81.07
2022-10-01T16:01:09.452Z,81.13
2022-10-01T16:03:42.364Z,81.33
2022-10-01T16:06:26.188Z,81.23
2022-10-01T16:09:13.120Z,81.10
2022-10-01T16:11:53.494Z,80.76
2022-10-01T16:14:36.982Z,80.58
2022-10-01T16:17:26.875Z,80.81
2022-10-01T16:20:01.981Z,80.74
2022-10-01T16:22:32.976Z,80.42
2022-10-01T16:25:03.452Z,80.43
2022-10-01T16:27:50.621Z,80.37
2022-10-01T16:30:23.578Z,80.55
2022-10-01T16:32:50.263Z,80.32
2022-10-01T16:35:28.359Z,79.77
2022-10-01T16:37:56.844Z,79.87
2022-10-01T16:40:38.978Z,81.61
2022-10-01T16:43:10.055Z,84.54
2022-10-01T16:45:38.746Z,86.69
2022-10-01T16:48:19.889Z,89.24
2022-10-01T16:50:46.732Z,90.84
2022-10-01T16:53:15.986Z,91.54
2022-10-01T16:55:43.382Z,91.77
2022-10-01T16:58:10.822Z,91.63
2022-10-01T17:00:37.803Z,92.40
2022-10-01T17:03:09.007Z,92.61
2022-10-01T17:05:37.114Z,92.90
2022-10-01T17:08:10.925Z,93.40
2022-10-01T17:10:47.026Z,93.19
2022-10-01T17:13:16.236Z,93.37
2022-10-01T17:15:43.277Z,93.90
2022-10-01T17:18:10.245Z,93.79
2022-10-01T17:20:39.179Z,93.70
2022-10-01T17:23:06.230Z,93.72
2022-10-01T17:25:35.868Z,93.57
2022-10-01T17:28:05.276Z,93.77
2022-10-01T17:30:32.734Z,93.48
2022-10-01T17:33:00.687Z,93.57
2022-10-01T17:35:29.524Z,93.33
2022-10-01T17:37:56.672Z,93.61
2022-10-01T17:40:23.284Z,93.11
2022-10-01T17:42:50.130Z,93.15
2022-10-01T17:45:17.049Z,92.96
2022-10-01T17:47:45.183Z,93.07
2022-10-01T17:50:12.736Z,93.14
2022-10-01T17:52:39.468Z,92.85
2022-10-01T17:55:06.487Z,92.79
2022-10-01T17:57:33.525Z,92.64
2022-10-01T18:00:00.367Z,92.51
2022-10-01T18:02:41.633Z,92.52
2022-10-01T18:05:12.225Z,92.68
2022-10-01T18:07:39.027Z,92.48
2022-10-01T18:10:07.120Z,92.65
2022-10-01T18:12:33.849Z,93.04
2022-10-01T18:15:01.342Z,92.79
2022-10-01T18:17:27.971Z,92.48
2022-10-01T18:19:54.800Z,92.16
2022-10-01T18:22:21.499Z,92.91
2022-10-01T18:24:50.626Z,92.52
2022-10-01T18:27:17.421Z,92.89
2022-10-01T18:29:44.072Z,93.43
2022-10-01T18:32:25.947Z,92.83
2022-10-01T18:34:59.414Z,93.03
2022-10-01T18:37:52.276Z,93.27
2022-10-01T18:40:27.354Z,93.30
2022-10-01T18:43:08.568Z,92.82
2022-10-01T18:45:49.752Z,93.10
2022-10-01T18:48:47.586Z,92.59
2022-10-01T18:51:21.536Z,92.67
2022-10-01T18:54:18.877Z,92.70
2022-10-01T18:57:08.236Z,92.75
2022-10-01T19:00:11.205Z,92.23
2022-10-01T19:03:02.443Z,92.02
2022-10-01T19:05:54.004Z,92.34
2022-10-01T19:08:42.127Z,92.64
2022-10-01T19:11:23.274Z,92.47
2022-10-01T19:13:58.042Z,92.46
2022-10-01T19:16:52.404Z,93.09
2022-10-01T19:19:31.314Z,94.45
2022-10-01T19:22:20.470Z,94.58
2022-10-01T19:25:11.090Z,94.37
2022-10-01T19:28:01.554Z,94.32
2022-10-01T19:30:38.450Z,94.58
2022-10-01T19:33:09.451Z,94.66
2022-10-01T19:35:41.627Z,94.89
2022-10-01T19:38:25.046Z,94.64
2022-10-01T19:40:59.247Z,94.88
2022-10-01T19:43:37.590Z,94.20
2022-10-01T19:46:13.011Z,93.92
2022-10-01T19:48:51.038Z,93.69
2022-10-01T19:51:21.805Z,93.80
2022-10-01T19:53:56.409Z,93.40
2022-10-01T19:56:27.005Z,93.33
2022-10-01T19:58:53.808Z,93.14
2022-10-01T20:01:24.156Z,92.82
2022-10-01T20:04:00.634Z,92.61
2022-10-01T20:06:38.889Z,92.58
2022-10-01T20:09:20.548Z,91.80
2022-10-01T20:11:59.322Z,91.37
2022-10-01T20:15:00.612Z,90.96
2022-10-01T20:17:52.268Z,91.88
2022-10-01T20:20:45.126Z,91.67
2022-10-01T20:23:36.867Z,91.34
2022-10-01T20:26:31.552Z,90.89
2022-10-01T20:29:43.288Z,90.69
2022-10-01T20:32:09.794Z,90.77
2022-10-01T20:34:44.374Z,91.00
2022-10-01T20:37:42.177Z,90.91
2022-10-01T20:40:18.671Z,90.58
2022-10-01T20:42:49.800Z,90.05
2022-10-01T20:45:26.635Z,91.75
2022-10-01T20:47:58.751Z,92.37
2022-10-01T20:50:32.413Z,92.03
2022-10-01T20:53:26.834Z,92.17
2022-10-01T20:56:10.015Z,91.56
2022-10-01T20:58:44.548Z,91.13
2022-10-01T21:01:20.590Z,91.56
2022-10-01T21:03:52.005Z,91.37
2022-10-01T21:06:26.520Z,92.18
2022-10-01T21:09:21.369Z,91.46
2022-10-01T21:12:00.084Z,91.27
2022-10-01T21:14:34.413Z,91.09
2022-10-01T21:17:01.058Z,90.85
2022-10-01T21:20:00.207Z,92.35
2022-10-01T21:22:32.359Z,93.35
2022-10-01T21:25:34.436Z,91.82
2022-10-01T21:28:14.678Z,93.18
2022-10-01T21:31:10.611Z,93.80
2022-10-01T21:33:47.062Z,93.67
2022-10-01T21:36:23.014Z,95.19
2022-10-01T21:38:57.085Z,94.29
2022-10-01T21:41:54.195Z,93.72
2022-10-01T21:44:45.248Z,94.15
2022-10-01T21:47:23.302Z,94.04
2022-10-01T21:50:15.424Z,94.53
2022-10-01T21:53:10.400Z,93.88
2022-10-01T21:55:47.953Z,93.27
2022-10-01T21:58:32.923Z,92.71
2022-10-01T22:01:15.929Z,91.34
2022-10-01T22:04:00.829Z,91.73
2022-10-01T22:06:38.639Z,91.73
2022-10-01T22:09:22.459Z,91.86
2022-10-01T22:11:56.349Z,91.21
2022-10-01T22:14:31.452Z,91.15
2022-10-01T22:17:14.621Z,90.17
2022-10-01T22:19:46.671Z,91.30
2022-10-01T22:22:21.121Z,89.62
2022-10-01T22:24:51.132Z,89.16
2022-10-01T22:27:27.789Z,89.37
2022-10-01T22:30:18.589Z,89.73
2022-10-01T22:32:49.857Z,89.56
2022-10-01T22:35:38.893Z,89.46
2022-10-01T22:38:15.007Z,89.43
2022-10-01T22:40:51.546Z,89.24
2022-10-01T22:43:18.166Z,90.27
2022-10-01T22:46:03.522Z,89.32
2022-10-01T22:48:48.524Z,90.24
2022-10-01T22:51:45.837Z,90.97
2022-10-01T22:54:29.458Z,89.59
2022-10-01T22:56:59.184Z,89.42
2022-10-01T22:59:49.098Z,89.02
2022-10-01T23:02:28.881Z,89.23
2022-10-01T23:05:11.026Z,89.85
2022-10-01T23:08:09.130Z,89.45
2022-10-01T23:10:58.825Z,88.89
2022-10-01T23:13:42.444Z,89.13
2022-10-01T23:16:32.142Z,88.97
2022-10-01T23:19:11.912Z,88.84
2022-10-01T23:22:09.496Z,89.26
2022-10-01T23:25:06.057Z,89.82
2022-10-01T23:28:01.617Z,90.21
2022-10-01T23:30:43.570Z,90.82
2022-10-01T23:33:40.885Z,89.70
2022-10-01T23:36:35.487Z,89.25
2022-10-01T23:39:24.207Z,88.70
2022-10-01T23:42:20.049Z,89.74
2022-10-01T23:44:54.688Z,88.96
2022-10-01T23:47:30.421Z,88.84
2022-10-01T23:50:00.434Z,89.38
2022-10-01T23:52:47.304Z,88.24
2022-10-01T23:55:38.735Z,88.38
2022-10-01T23:58:11.057Z,89.66
